sensor_id;sensor_type;location;lat;lon;timestamp;P1;durP1;ratioP1;P2;durP2;ratioP2
55879;SDS011;41802;51.564;-1.838;2024-02-14T00:01:42;22.90;;;3.78;;
55879;SDS011;41802;51.564;-1.838;2024-02-14T00:04:10;28.45;;;3.80;;
55879;SDS011;41802;51.564;-1.838;2024-02-14T00:06:40;24.65;;;2.88;;
55879;SDS011;41802;51.564;-1.838;2024-02-14T00:09:07;26.45;;;2.90;;
55879;SDS011;41802;51.564;-1.838;2024-02-14T00:11:35;15.87;;;2.13;;
55879;SDS011;41802;51.564;-1.838;2024-02-14T00:14:15;19.90;;;2.00;;
55879;SDS011;41802;51.564;-1.838;2024-02-14T00:16:45;18.85;;;2.70;;
55879;SDS011;41802;51.564;-1.838;2024-02-14T00:19:13;22.45;;;2.22;;
55879;SDS011;41802;51.564;-1.838;2024-02-14T00:21:41;16.00;;;2.40;;
55879;SDS011;41802;51.564;-1.838;2024-02-14T00:24:09;17.13;;;1.63;;
55879;SDS011;41802;51.564;-1.838;2024-02-14T00:26:38;18.50;;;2.38;;
55879;SDS011;41802;51.564;-1.838;2024-02-14T00:29:06;14.30;;;1.60;;
55879;SDS011;41802;51.564;-1.838;2024-02-14T00:31:35;23.88;;;2.10;;
55879;SDS011;41802;51.564;-1.838;2024-02-14T00:34:03;18.38;;;2.63;;
55879;SDS011;41802;51.564;-1.838;2024-02-14T00:36:31;20.30;;;2.33;;
55879;SDS011;41802;51.564;-1.838;2024-02-14T00:39:00;21.70;;;2.03;;
55879;SDS011;41802;51.564;-1.838;2024-02-14T00:41:28;16.38;;;2.20;;
55879;SDS011;41802;51.564;-1.838;2024-02-14T00:46:45;16.42;;;2.88;;
55879;SDS011;41802;51.564;-1.838;2024-02-14T00:49:14;15.77;;;1.50;;
55879;SDS011;41802;51.564;-1.838;2024-02-14T00:51:42;18.38;;;2.05;;
55879;SDS011;41802;51.564;-1.838;2024-02-14T00:54:10;16.83;;;1.58;;
55879;SDS011;41802;51.564;-1.838;2024-02-14T00:56:38;15.60;;;1.85;;
55879;SDS011;41802;51.564;-1.838;2024-02-14T00:59:06;18.38;;;2.58;;
55879;SDS011;41802;51.564;-1.838;2024-02-14T01:01:34;14.37;;;1.57;;
55879;SDS011;41802;51.564;-1.838;2024-02-14T01:04:03;18.38;;;1.98;;
55879;SDS011;41802;51.564;-1.838;2024-02-14T01:06:31;16.02;;;1.58;;
55879;SDS011;41802;51.564;-1.838;2024-02-14T01:08:59;14.80;;;1.80;;
55879;SDS011;41802;51.564;-1.838;2024-02-14T01:11:28;16.50;;;2.05;;
55879;SDS011;41802;51.564;-1.838;2024-02-14T01:13:56;14.60;;;1.83;;
55879;SDS011;41802;51.564;-1.838;2024-02-14T01:16:24;15.48;;;1.42;;
55879;SDS011;41802;51.564;-1.838;2024-02-14T01:18:52;12.10;;;1.65;;
55879;SDS011;41802;51.564;-1.838;2024-02-14T01:21:25;16.90;;;2.10;;
55879;SDS011;41802;51.564;-1.838;2024-02-14T01:23:53;14.77;;;1.77;;
55879;SDS011;41802;51.564;-1.838;2024-02-14T01:26:21;12.53;;;1.30;;
55879;SDS011;41802;51.564;-1.838;2024-02-14T01:28:49;24.27;;;2.15;;
55879;SDS011;41802;51.564;-1.838;2024-02-14T01:31:17;10.63;;;1.50;;
55879;SDS011;41802;51.564;-1.838;2024-02-14T01:33:46;11.27;;;1.60;;
55879;SDS011;41802;51.564;-1.838;2024-02-14T01:36:16;8.55;;;2.03;;
55879;SDS011;41802;51.564;-1.838;2024-02-14T01:38:48;11.93;;;1.70;;
55879;SDS011;41802;51.564;-1.838;2024-02-14T01:41:16;13.30;;;1.75;;
55879;SDS011;41802;51.564;-1.838;2024-02-14T01:43:45;12.90;;;1.98;;
55879;SDS011;41802;51.564;-1.838;2024-02-14T01:46:13;10.30;;;1.50;;
55879;SDS011;41802;51.564;-1.838;2024-02-14T01:48:41;14.25;;;2.08;;
55879;SDS011;41802;51.564;-1.838;2024-02-14T01:51:10;9.67;;;1.20;;
55879;SDS011;41802;51.564;-1.838;2024-02-14T01:53:38;9.52;;;1.15;;
55879;SDS011;41802;51.564;-1.838;2024-02-14T01:56:08;10.02;;;1.15;;
55879;SDS011;41802;51.564;-1.838;2024-02-14T01:58:36;6.97;;;1.77;;
55879;SDS011;41802;51.564;-1.838;2024-02-14T02:01:09;10.20;;;1.85;;
55879;SDS011;41802;51.564;-1.838;2024-02-14T02:03:38;8.47;;;0.90;;
55879;SDS011;41802;51.564;-1.838;2024-02-14T02:06:06;8.25;;;1.00;;
55879;SDS011;41802;51.564;-1.838;2024-02-14T02:08:37;11.00;;;1.30;;
55879;SDS011;41802;51.564;-1.838;2024-02-14T02:11:05;9.82;;;1.08;;
55879;SDS011;41802;51.564;-1.838;2024-02-14T02:13:35;10.35;;;1.20;;
55879;SDS011;41802;51.564;-1.838;2024-02-14T02:16:05;9.10;;;1.50;;
55879;SDS011;41802;51.564;-1.838;2024-02-14T02:18:34;9.85;;;1.45;;
55879;SDS011;41802;51.564;-1.838;2024-02-14T02:21:02;12.15;;;1.63;;
55879;SDS011;41802;51.564;-1.838;2024-02-14T02:23:32;14.23;;;2.00;;
55879;SDS011;41802;51.564;-1.838;2024-02-14T02:26:00;8.68;;;1.17;;
55879;SDS011;41802;51.564;-1.838;2024-02-14T02:28:28;8.57;;;1.10;;
55879;SDS011;41802;51.564;-1.838;2024-02-14T02:30:57;9.30;;;0.70;;
55879;SDS011;41802;51.564;-1.838;2024-02-14T02:33:25;10.07;;;1.17;;
55879;SDS011;41802;51.564;-1.838;2024-02-14T02:35:53;6.15;;;0.80;;
55879;SDS011;41802;51.564;-1.838;2024-02-14T02:38:21;7.38;;;0.70;;
55879;SDS011;41802;51.564;-1.838;2024-02-14T02:40:50;13.87;;;1.20;;
55879;SDS011;41802;51.564;-1.838;2024-02-14T02:43:18;9.95;;;1.20;;
55879;SDS011;41802;51.564;-1.838;2024-02-14T02:45:46;9.57;;;1.45;;
55879;SDS011;41802;51.564;-1.838;2024-02-14T02:48:13;6.57;;;1.00;;
55879;SDS011;41802;51.564;-1.838;2024-02-14T02:50:41;7.43;;;1.83;;
55879;SDS011;41802;51.564;-1.838;2024-02-14T02:53:11;7.93;;;1.10;;
55879;SDS011;41802;51.564;-1.838;2024-02-14T02:55:39;11.18;;;1.55;;
55879;SDS011;41802;51.564;-1.838;2024-02-14T02:58:09;10.07;;;1.35;;
55879;SDS011;41802;51.564;-1.838;2024-02-14T03:00:45;9.13;;;0.93;;
55879;SDS011;41802;51.564;-1.838;2024-02-14T03:03:15;8.35;;;1.10;;
55879;SDS011;41802;51.564;-1.838;2024-02-14T03:05:43;7.80;;;1.10;;
55879;SDS011;41802;51.564;-1.838;2024-02-14T03:08:12;8.70;;;1.42;;
55879;SDS011;41802;51.564;-1.838;2024-02-14T03:10:42;8.00;;;1.15;;
55879;SDS011;41802;51.564;-1.838;2024-02-14T03:13:14;11.43;;;0.88;;
55879;SDS011;41802;51.564;-1.838;2024-02-14T03:15:44;7.03;;;0.63;;
55879;SDS011;41802;51.564;-1.838;2024-02-14T03:18:16;8.27;;;0.80;;
55879;SDS011;41802;51.564;-1.838;2024-02-14T03:20:44;7.72;;;0.73;;
55879;SDS011;41802;51.564;-1.838;2024-02-14T03:23:12;7.28;;;0.90;;
55879;SDS011;41802;51.564;-1.838;2024-02-14T03:25:41;8.05;;;1.10;;
55879;SDS011;41802;51.564;-1.838;2024-02-14T03:28:10;8.70;;;0.88;;
55879;SDS011;41802;51.564;-1.838;2024-02-14T03:30:41;9.60;;;1.07;;
55879;SDS011;41802;51.564;-1.838;2024-02-14T03:33:10;10.13;;;0.80;;
55879;SDS011;41802;51.564;-1.838;2024-02-14T03:35:38;11.40;;;0.93;;
55879;SDS011;41802;51.564;-1.838;2024-02-14T03:38:07;7.60;;;0.70;;
55879;SDS011;41802;51.564;-1.838;2024-02-14T03:40:36;9.95;;;1.05;;
55879;SDS011;41802;51.564;-1.838;2024-02-14T03:43:04;8.07;;;1.43;;
55879;SDS011;41802;51.564;-1.838;2024-02-14T03:45:32;9.52;;;0.80;;
55879;SDS011;41802;51.564;-1.838;2024-02-14T03:48:02;8.38;;;0.95;;
55879;SDS011;41802;51.564;-1.838;2024-02-14T03:50:31;6.65;;;0.98;;
55879;SDS011;41802;51.564;-1.838;2024-02-14T03:52:59;6.35;;;1.10;;
55879;SDS011;41802;51.564;-1.838;2024-02-14T03:55:28;7.03;;;0.93;;
55879;SDS011;41802;51.564;-1.838;2024-02-14T03:57:56;8.13;;;0.90;;
55879;SDS011;41802;51.564;-1.838;2024-02-14T04:00:26;11.52;;;0.95;;
55879;SDS011;41802;51.564;-1.838;2024-02-14T04:02:53;9.18;;;1.15;;
55879;SDS011;41802;51.564;-1.838;2024-02-14T04:05:27;7.40;;;0.90;;
55879;SDS011;41802;51.564;-1.838;2024-02-14T04:07:55;4.83;;;0.50;;
55879;SDS011;41802;51.564;-1.838;2024-02-14T04:10:27;8.55;;;0.85;;
55879;SDS011;41802;51.564;-1.838;2024-02-14T04:12:56;7.57;;;0.90;;
55879;SDS011;41802;51.564;-1.838;2024-02-14T04:15:25;7.97;;;1.02;;
55879;SDS011;41802;51.564;-1.838;2024-02-14T04:17:52;6.30;;;1.27;;
55879;SDS011;41802;51.564;-1.838;2024-02-14T04:20:20;8.13;;;0.90;;
55879;SDS011;41802;51.564;-1.838;2024-02-14T04:22:49;13.32;;;1.73;;
55879;SDS011;41802;51.564;-1.838;2024-02-14T04:25:23;11.30;;;1.30;;
55879;SDS011;41802;51.564;-1.838;2024-02-14T04:27:51;8.73;;;1.02;;
55879;SDS011;41802;51.564;-1.838;2024-02-14T04:30:18;12.52;;;1.33;;
55879;SDS011;41802;51.564;-1.838;2024-02-14T04:32:46;9.40;;;0.83;;
55879;SDS011;41802;51.564;-1.838;2024-02-14T04:35:16;9.82;;;1.85;;
55879;SDS011;41802;51.564;-1.838;2024-02-14T04:37:45;10.25;;;1.00;;
55879;SDS011;41802;51.564;-1.838;2024-02-14T04:40:16;8.77;;;1.10;;
55879;SDS011;41802;51.564;-1.838;2024-02-14T04:42:44;9.50;;;1.05;;
55879;SDS011;41802;51.564;-1.838;2024-02-14T04:45:12;11.70;;;1.23;;
55879;SDS011;41802;51.564;-1.838;2024-02-14T04:47:40;10.50;;;1.52;;
55879;SDS011;41802;51.564;-1.838;2024-02-14T04:50:09;10.65;;;1.08;;
55879;SDS011;41802;51.564;-1.838;2024-02-14T04:52:37;8.10;;;0.93;;
55879;SDS011;41802;51.564;-1.838;2024-02-14T04:55:05;11.57;;;1.30;;
55879;SDS011;41802;51.564;-1.838;2024-02-14T04:57:35;8.63;;;0.83;;
55879;SDS011;41802;51.564;-1.838;2024-02-14T05:00:03;11.70;;;1.45;;
55879;SDS011;41802;51.564;-1.838;2024-02-14T05:02:32;10.70;;;1.30;;
55879;SDS011;41802;51.564;-1.838;2024-02-14T05:05:00;8.00;;;0.85;;
55879;SDS011;41802;51.564;-1.838;2024-02-14T05:07:28;7.03;;;0.63;;
55879;SDS011;41802;51.564;-1.838;2024-02-14T05:09:56;10.53;;;1.20;;
55879;SDS011;41802;51.564;-1.838;2024-02-14T05:12:23;9.40;;;1.25;;
55879;SDS011;41802;51.564;-1.838;2024-02-14T05:14:52;11.15;;;1.40;;
55879;SDS011;41802;51.564;-1.838;2024-02-14T05:17:20;7.72;;;0.73;;
55879;SDS011;41802;51.564;-1.838;2024-02-14T05:19:50;11.70;;;1.30;;
55879;SDS011;41802;51.564;-1.838;2024-02-14T05:22:19;13.17;;;1.00;;
55879;SDS011;41802;51.564;-1.838;2024-02-14T05:24:47;5.85;;;0.80;;
55879;SDS011;41802;51.564;-1.838;2024-02-14T05:27:15;6.75;;;0.77;;
55879;SDS011;41802;51.564;-1.838;2024-02-14T05:29:43;9.60;;;1.50;;
55879;SDS011;41802;51.564;-1.838;2024-02-14T05:32:13;10.35;;;1.30;;
55879;SDS011;41802;51.564;-1.838;2024-02-14T05:34:41;8.87;;;1.10;;
55879;SDS011;41802;51.564;-1.838;2024-02-14T05:37:10;6.53;;;0.80;;
55879;SDS011;41802;51.564;-1.838;2024-02-14T05:39:38;4.82;;;0.68;;
55879;SDS011;41802;51.564;-1.838;2024-02-14T05:42:23;10.65;;;1.50;;
55879;SDS011;41802;51.564;-1.838;2024-02-14T05:44:51;8.10;;;1.35;;
55879;SDS011;41802;51.564;-1.838;2024-02-14T05:47:20;7.23;;;1.10;;
55879;SDS011;41802;51.564;-1.838;2024-02-14T05:49:48;10.35;;;1.00;;
55879;SDS011;41802;51.564;-1.838;2024-02-14T05:52:16;9.73;;;1.67;;
55879;SDS011;41802;51.564;-1.838;2024-02-14T05:54:45;8.10;;;0.80;;
55879;SDS011;41802;51.564;-1.838;2024-02-14T05:57:12;3.47;;;0.63;;
55879;SDS011;41802;51.564;-1.838;2024-02-14T05:59:40;7.03;;;1.03;;
55879;SDS011;41802;51.564;-1.838;2024-02-14T06:02:08;5.60;;;0.80;;
55879;SDS011;41802;51.564;-1.838;2024-02-14T06:04:39;6.80;;;0.98;;
55879;SDS011;41802;51.564;-1.838;2024-02-14T06:07:08;6.20;;;0.90;;
55879;SDS011;41802;51.564;-1.838;2024-02-14T06:09:37;4.10;;;0.90;;
55879;SDS011;41802;51.564;-1.838;2024-02-14T06:12:06;5.23;;;0.70;;
55879;SDS011;41802;51.564;-1.838;2024-02-14T06:14:34;9.07;;;1.08;;
55879;SDS011;41802;51.564;-1.838;2024-02-14T06:17:02;5.47;;;0.63;;
55879;SDS011;41802;51.564;-1.838;2024-02-14T06:19:29;6.53;;;1.30;;
55879;SDS011;41802;51.564;-1.838;2024-02-14T06:22:00;7.45;;;0.88;;
55879;SDS011;41802;51.564;-1.838;2024-02-14T06:24:27;6.80;;;0.83;;
55879;SDS011;41802;51.564;-1.838;2024-02-14T06:26:55;4.68;;;0.70;;
55879;SDS011;41802;51.564;-1.838;2024-02-14T06:29:23;4.53;;;0.80;;
55879;SDS011;41802;51.564;-1.838;2024-02-14T06:31:51;6.70;;;0.80;;
55879;SDS011;41802;51.564;-1.838;2024-02-14T06:34:18;8.85;;;0.90;;
55879;SDS011;41802;51.564;-1.838;2024-02-14T06:36:47;4.70;;;0.60;;
55879;SDS011;41802;51.564;-1.838;2024-02-14T06:39:16;4.45;;;0.70;;
55879;SDS011;41802;51.564;-1.838;2024-02-14T06:42:01;4.88;;;0.77;;
55879;SDS011;41802;51.564;-1.838;2024-02-14T06:44:29;4.72;;;0.80;;
55879;SDS011;41802;51.564;-1.838;2024-02-14T06:46:59;5.07;;;0.98;;
55879;SDS011;41802;51.564;-1.838;2024-02-14T06:49:26;4.93;;;1.00;;
55879;SDS011;41802;51.564;-1.838;2024-02-14T06:51:59;7.65;;;0.80;;
55879;SDS011;41802;51.564;-1.838;2024-02-14T06:54:29;3.92;;;0.60;;
55879;SDS011;41802;51.564;-1.838;2024-02-14T06:56:57;7.82;;;1.00;;
55879;SDS011;41802;51.564;-1.838;2024-02-14T06:59:27;7.88;;;1.33;;
55879;SDS011;41802;51.564;-1.838;2024-02-14T07:01:55;7.17;;;0.77;;
55879;SDS011;41802;51.564;-1.838;2024-02-14T07:04:39;5.78;;;0.90;;
55879;SDS011;41802;51.564;-1.838;2024-02-14T07:07:07;3.55;;;0.70;;
55879;SDS011;41802;51.564;-1.838;2024-02-14T07:09:37;6.88;;;1.25;;
55879;SDS011;41802;51.564;-1.838;2024-02-14T07:12:05;4.63;;;1.25;;
55879;SDS011;41802;51.564;-1.838;2024-02-14T07:14:33;7.27;;;1.20;;
55879;SDS011;41802;51.564;-1.838;2024-02-14T07:17:01;5.78;;;1.00;;
55879;SDS011;41802;51.564;-1.838;2024-02-14T07:19:29;7.57;;;0.80;;
55879;SDS011;41802;51.564;-1.838;2024-02-14T07:21:57;7.95;;;1.42;;
55879;SDS011;41802;51.564;-1.838;2024-02-14T07:24:25;7.63;;;1.10;;
55879;SDS011;41802;51.564;-1.838;2024-02-14T07:26:54;8.53;;;1.40;;
55879;SDS011;41802;51.564;-1.838;2024-02-14T07:29:23;9.75;;;1.30;;
55879;SDS011;41802;51.564;-1.838;2024-02-14T07:31:54;5.95;;;1.10;;
55879;SDS011;41802;51.564;-1.838;2024-02-14T07:34:22;6.03;;;1.08;;
55879;SDS011;41802;51.564;-1.838;2024-02-14T07:36:50;7.40;;;1.10;;
55879;SDS011;41802;51.564;-1.838;2024-02-14T07:39:18;9.27;;;1.70;;
55879;SDS011;41802;51.564;-1.838;2024-02-14T07:41:46;7.45;;;1.40;;
55879;SDS011;41802;51.564;-1.838;2024-02-14T07:44:15;7.45;;;0.80;;
55879;SDS011;41802;51.564;-1.838;2024-02-14T07:46:42;4.97;;;1.00;;
55879;SDS011;41802;51.564;-1.838;2024-02-14T07:49:10;6.28;;;1.30;;
55879;SDS011;41802;51.564;-1.838;2024-02-14T07:51:38;6.97;;;0.90;;
55879;SDS011;41802;51.564;-1.838;2024-02-14T07:54:06;6.97;;;1.20;;
55879;SDS011;41802;51.564;-1.838;2024-02-14T07:56:33;7.15;;;1.25;;
55879;SDS011;41802;51.564;-1.838;2024-02-14T07:59:01;7.72;;;1.30;;
55879;SDS011;41802;51.564;-1.838;2024-02-14T08:01:31;4.20;;;0.70;;
55879;SDS011;41802;51.564;-1.838;2024-02-14T08:04:00;5.60;;;0.80;;
55879;SDS011;41802;51.564;-1.838;2024-02-14T08:06:29;4.03;;;0.85;;
55879;SDS011;41802;51.564;-1.838;2024-02-14T08:08:58;8.38;;;1.33;;
55879;SDS011;41802;51.564;-1.838;2024-02-14T08:11:28;8.68;;;1.10;;
55879;SDS011;41802;51.564;-1.838;2024-02-14T08:13:56;7.38;;;0.80;;
55879;SDS011;41802;51.564;-1.838;2024-02-14T08:16:24;5.23;;;0.70;;
55879;SDS011;41802;51.564;-1.838;2024-02-14T08:18:53;5.43;;;0.90;;
55879;SDS011;41802;51.564;-1.838;2024-02-14T08:21:26;4.45;;;0.55;;
55879;SDS011;41802;51.564;-1.838;2024-02-14T08:23:58;3.35;;;0.57;;
55879;SDS011;41802;51.564;-1.838;2024-02-14T08:26:27;2.83;;;0.50;;
55879;SDS011;41802;51.564;-1.838;2024-02-14T08:28:56;2.97;;;0.60;;
55879;SDS011;41802;51.564;-1.838;2024-02-14T08:31:25;2.65;;;0.63;;
55879;SDS011;41802;51.564;-1.838;2024-02-14T08:33:54;2.38;;;0.47;;
55879;SDS011;41802;51.564;-1.838;2024-02-14T08:36:22;6.97;;;0.50;;
55879;SDS011;41802;51.564;-1.838;2024-02-14T08:38:50;5.03;;;0.50;;
55879;SDS011;41802;51.564;-1.838;2024-02-14T08:41:18;3.42;;;0.30;;
55879;SDS011;41802;51.564;-1.838;2024-02-14T08:43:47;2.20;;;0.32;;
55879;SDS011;41802;51.564;-1.838;2024-02-14T08:46:15;2.75;;;0.30;;
55879;SDS011;41802;51.564;-1.838;2024-02-14T08:48:45;3.92;;;0.40;;
55879;SDS011;41802;51.564;-1.838;2024-02-14T08:51:16;2.00;;;0.40;;
55879;SDS011;41802;51.564;-1.838;2024-02-14T08:53:47;3.33;;;0.55;;
55879;SDS011;41802;51.564;-1.838;2024-02-14T08:56:16;3.27;;;0.50;;
55879;SDS011;41802;51.564;-1.838;2024-02-14T08:58:44;4.60;;;0.70;;
55879;SDS011;41802;51.564;-1.838;2024-02-14T09:01:13;3.35;;;0.52;;
55879;SDS011;41802;51.564;-1.838;2024-02-14T09:03:41;2.67;;;0.50;;
55879;SDS011;41802;51.564;-1.838;2024-02-14T09:06:17;5.37;;;0.60;;
55879;SDS011;41802;51.564;-1.838;2024-02-14T09:08:45;4.15;;;0.60;;
55879;SDS011;41802;51.564;-1.838;2024-02-14T09:11:13;4.10;;;0.70;;
55879;SDS011;41802;51.564;-1.838;2024-02-14T09:13:42;3.42;;;0.70;;
55879;SDS011;41802;51.564;-1.838;2024-02-14T09:16:11;3.55;;;0.68;;
55879;SDS011;41802;51.564;-1.838;2024-02-14T09:18:39;2.93;;;0.70;;
55879;SDS011;41802;51.564;-1.838;2024-02-14T09:21:07;3.17;;;0.50;;
55879;SDS011;41802;51.564;-1.838;2024-02-14T09:23:36;5.75;;;0.57;;
55879;SDS011;41802;51.564;-1.838;2024-02-14T09:26:06;2.30;;;0.40;;
55879;SDS011;41802;51.564;-1.838;2024-02-14T09:28:34;3.83;;;0.40;;
55879;SDS011;41802;51.564;-1.838;2024-02-14T09:31:02;4.03;;;0.50;;
55879;SDS011;41802;51.564;-1.838;2024-02-14T09:33:31;3.33;;;0.40;;
55879;SDS011;41802;51.564;-1.838;2024-02-14T09:35:59;3.55;;;0.32;;
55879;SDS011;41802;51.564;-1.838;2024-02-14T09:38:27;3.35;;;0.52;;
55879;SDS011;41802;51.564;-1.838;2024-02-14T09:40:57;2.55;;;0.40;;
55879;SDS011;41802;51.564;-1.838;2024-02-14T09:43:31;3.53;;;0.53;;
55879;SDS011;41802;51.564;-1.838;2024-02-14T09:46:00;2.85;;;0.60;;
55879;SDS011;41802;51.564;-1.838;2024-02-14T09:48:29;4.22;;;0.50;;
55879;SDS011;41802;51.564;-1.838;2024-02-14T09:50:59;4.43;;;0.52;;
55879;SDS011;41802;51.564;-1.838;2024-02-14T09:53:27;6.00;;;0.60;;
55879;SDS011;41802;51.564;-1.838;2024-02-14T09:55:57;4.07;;;0.63;;
55879;SDS011;41802;51.564;-1.838;2024-02-14T09:58:26;5.18;;;0.70;;
55879;SDS011;41802;51.564;-1.838;2024-02-14T10:00:54;4.03;;;0.50;;
55879;SDS011;41802;51.564;-1.838;2024-02-14T10:03:22;3.35;;;0.50;;
55879;SDS011;41802;51.564;-1.838;2024-02-14T10:06:04;3.15;;;0.45;;
55879;SDS011;41802;51.564;-1.838;2024-02-14T10:08:33;5.53;;;0.70;;
55879;SDS011;41802;51.564;-1.838;2024-02-14T10:11:09;4.30;;;0.50;;
55879;SDS011;41802;51.564;-1.838;2024-02-14T10:13:37;3.08;;;0.70;;
55879;SDS011;41802;51.564;-1.838;2024-02-14T10:16:05;4.78;;;0.63;;
55879;SDS011;41802;51.564;-1.838;2024-02-14T10:18:34;5.32;;;0.82;;
55879;SDS011;41802;51.564;-1.838;2024-02-14T10:21:02;7.33;;;0.90;;
55879;SDS011;41802;51.564;-1.838;2024-02-14T10:23:30;6.85;;;0.88;;
55879;SDS011;41802;51.564;-1.838;2024-02-14T10:25:59;7.85;;;1.33;;
55879;SDS011;41802;51.564;-1.838;2024-02-14T10:28:28;4.57;;;0.70;;
55879;SDS011;41802;51.564;-1.838;2024-02-14T10:31:09;4.18;;;0.77;;
55879;SDS011;41802;51.564;-1.838;2024-02-14T10:33:37;9.40;;;0.70;;
55879;SDS011;41802;51.564;-1.838;2024-02-14T10:36:06;4.38;;;0.50;;
55879;SDS011;41802;51.564;-1.838;2024-02-14T10:38:35;9.38;;;1.25;;
55879;SDS011;41802;51.564;-1.838;2024-02-14T10:41:03;7.47;;;0.80;;
55879;SDS011;41802;51.564;-1.838;2024-02-14T10:43:36;8.20;;;0.70;;
55879;SDS011;41802;51.564;-1.838;2024-02-14T10:46:07;6.83;;;0.90;;
55879;SDS011;41802;51.564;-1.838;2024-02-14T10:48:36;6.88;;;0.90;;
55879;SDS011;41802;51.564;-1.838;2024-02-14T10:51:05;8.60;;;0.88;;
55879;SDS011;41802;51.564;-1.838;2024-02-14T10:53:36;4.55;;;0.80;;
55879;SDS011;41802;51.564;-1.838;2024-02-14T10:56:08;5.18;;;1.08;;
55879;SDS011;41802;51.564;-1.838;2024-02-14T10:58:40;4.37;;;0.60;;
55879;SDS011;41802;51.564;-1.838;2024-02-14T11:01:09;7.93;;;1.48;;
55879;SDS011;41802;51.564;-1.838;2024-02-14T11:03:40;7.10;;;1.10;;
55879;SDS011;41802;51.564;-1.838;2024-02-14T11:09:03;7.22;;;1.20;;
55879;SDS011;41802;51.564;-1.838;2024-02-14T11:11:44;7.60;;;0.90;;
55879;SDS011;41802;51.564;-1.838;2024-02-14T11:14:17;7.63;;;1.10;;
55879;SDS011;41802;51.564;-1.838;2024-02-14T11:16:45;4.97;;;0.90;;
55879;SDS011;41802;51.564;-1.838;2024-02-14T11:19:14;5.25;;;0.63;;
55879;SDS011;41802;51.564;-1.838;2024-02-14T11:21:44;8.75;;;1.25;;
55879;SDS011;41802;51.564;-1.838;2024-02-14T11:24:14;7.78;;;0.85;;
55879;SDS011;41802;51.564;-1.838;2024-02-14T11:26:48;5.40;;;0.70;;
55879;SDS011;41802;51.564;-1.838;2024-02-14T11:29:20;6.33;;;1.07;;
55879;SDS011;41802;51.564;-1.838;2024-02-14T11:31:57;4.72;;;1.20;;
55879;SDS011;41802;51.564;-1.838;2024-02-14T11:34:25;8.85;;;1.08;;
55879;SDS011;41802;51.564;-1.838;2024-02-14T11:36:53;7.80;;;1.13;;
55879;SDS011;41802;51.564;-1.838;2024-02-14T11:39:21;4.07;;;0.80;;
55879;SDS011;41802;51.564;-1.838;2024-02-14T11:41:50;7.80;;;1.60;;
55879;SDS011;41802;51.564;-1.838;2024-02-14T11:44:21;5.22;;;0.80;;
55879;SDS011;41802;51.564;-1.838;2024-02-14T11:46:51;4.95;;;0.65;;
55879;SDS011;41802;51.564;-1.838;2024-02-14T11:49:19;8.65;;;1.13;;
55879;SDS011;41802;51.564;-1.838;2024-02-14T11:51:47;5.60;;;0.75;;
55879;SDS011;41802;51.564;-1.838;2024-02-14T11:54:15;6.90;;;0.87;;
55879;SDS011;41802;51.564;-1.838;2024-02-14T11:56:44;5.75;;;0.70;;
55879;SDS011;41802;51.564;-1.838;2024-02-14T11:59:13;8.07;;;1.02;;
55879;SDS011;41802;51.564;-1.838;2024-02-14T12:01:43;10.07;;;1.08;;
55879;SDS011;41802;51.564;-1.838;2024-02-14T12:04:13;7.05;;;0.95;;
55879;SDS011;41802;51.564;-1.838;2024-02-14T12:06:41;4.00;;;0.83;;
55879;SDS011;41802;51.564;-1.838;2024-02-14T12:09:09;6.43;;;0.60;;
55879;SDS011;41802;51.564;-1.838;2024-02-14T12:11:40;6.75;;;1.15;;
55879;SDS011;41802;51.564;-1.838;2024-02-14T12:14:10;6.28;;;0.98;;
55879;SDS011;41802;51.564;-1.838;2024-02-14T12:16:38;9.52;;;1.05;;
55879;SDS011;41802;51.564;-1.838;2024-02-14T12:19:15;5.33;;;0.80;;
55879;SDS011;41802;51.564;-1.838;2024-02-14T12:21:44;4.90;;;0.70;;
55879;SDS011;41802;51.564;-1.838;2024-02-14T12:24:12;7.35;;;1.00;;
55879;SDS011;41802;51.564;-1.838;2024-02-14T12:26:41;4.82;;;0.50;;
55879;SDS011;41802;51.564;-1.838;2024-02-14T12:29:15;4.27;;;0.50;;
55879;SDS011;41802;51.564;-1.838;2024-02-14T12:31:43;4.72;;;0.60;;
55879;SDS011;41802;51.564;-1.838;2024-02-14T12:34:12;5.03;;;0.97;;
55879;SDS011;41802;51.564;-1.838;2024-02-14T12:36:41;7.45;;;0.90;;
55879;SDS011;41802;51.564;-1.838;2024-02-14T12:39:08;8.10;;;0.95;;
55879;SDS011;41802;51.564;-1.838;2024-02-14T12:41:39;7.22;;;1.08;;
55879;SDS011;41802;51.564;-1.838;2024-02-14T12:44:07;4.82;;;0.90;;
55879;SDS011;41802;51.564;-1.838;2024-02-14T12:46:36;7.10;;;1.23;;
55879;SDS011;41802;51.564;-1.838;2024-02-14T12:49:05;5.88;;;0.70;;
55879;SDS011;41802;51.564;-1.838;2024-02-14T12:51:37;7.50;;;1.42;;
55879;SDS011;41802;51.564;-1.838;2024-02-14T12:54:06;10.90;;;0.90;;
55879;SDS011;41802;51.564;-1.838;2024-02-14T12:56:35;9.48;;;1.30;;
55879;SDS011;41802;51.564;-1.838;2024-02-14T12:59:03;9.50;;;1.10;;
55879;SDS011;41802;51.564;-1.838;2024-02-14T13:01:31;7.00;;;0.88;;
55879;SDS011;41802;51.564;-1.838;2024-02-14T13:04:03;11.63;;;2.03;;
55879;SDS011;41802;51.564;-1.838;2024-02-14T13:06:43;5.70;;;1.05;;
55879;SDS011;41802;51.564;-1.838;2024-02-14T13:09:10;12.73;;;1.20;;
55879;SDS011;41802;51.564;-1.838;2024-02-14T13:11:42;6.95;;;1.00;;
55879;SDS011;41802;51.564;-1.838;2024-02-14T13:14:10;6.50;;;1.55;;
55879;SDS011;41802;51.564;-1.838;2024-02-14T13:16:38;6.65;;;1.00;;
55879;SDS011;41802;51.564;-1.838;2024-02-14T13:19:06;7.13;;;1.00;;
55879;SDS011;41802;51.564;-1.838;2024-02-14T13:21:34;9.15;;;1.45;;
55879;SDS011;41802;51.564;-1.838;2024-02-14T13:24:04;8.93;;;1.02;;
55879;SDS011;41802;51.564;-1.838;2024-02-14T13:26:32;7.05;;;1.10;;
55879;SDS011;41802;51.564;-1.838;2024-02-14T13:29:01;4.53;;;0.70;;
55879;SDS011;41802;51.564;-1.838;2024-02-14T13:31:28;8.63;;;1.10;;
55879;SDS011;41802;51.564;-1.838;2024-02-14T13:33:56;8.45;;;0.85;;
55879;SDS011;41802;51.564;-1.838;2024-02-14T13:36:24;9.93;;;1.33;;
55879;SDS011;41802;51.564;-1.838;2024-02-14T13:38:53;8.60;;;1.38;;
55879;SDS011;41802;51.564;-1.838;2024-02-14T13:41:22;9.85;;;1.33;;
55879;SDS011;41802;51.564;-1.838;2024-02-14T13:43:50;6.63;;;1.77;;
55879;SDS011;41802;51.564;-1.838;2024-02-14T13:46:17;9.13;;;1.10;;
55879;SDS011;41802;51.564;-1.838;2024-02-14T13:48:46;12.80;;;1.92;;
55879;SDS011;41802;51.564;-1.838;2024-02-14T13:51:14;5.95;;;0.80;;
55879;SDS011;41802;51.564;-1.838;2024-02-14T13:53:42;6.97;;;1.65;;
55879;SDS011;41802;51.564;-1.838;2024-02-14T13:56:13;8.00;;;1.67;;
55879;SDS011;41802;51.564;-1.838;2024-02-14T13:58:43;6.50;;;1.33;;
55879;SDS011;41802;51.564;-1.838;2024-02-14T14:01:11;6.50;;;1.30;;
55879;SDS011;41802;51.564;-1.838;2024-02-14T14:03:39;7.22;;;1.42;;
55879;SDS011;41802;51.564;-1.838;2024-02-14T14:06:07;9.90;;;2.05;;
55879;SDS011;41802;51.564;-1.838;2024-02-14T14:08:35;8.27;;;1.70;;
55879;SDS011;41802;51.564;-1.838;2024-02-14T14:11:03;4.35;;;1.40;;
55879;SDS011;41802;51.564;-1.838;2024-02-14T14:13:34;8.20;;;1.40;;
55879;SDS011;41802;51.564;-1.838;2024-02-14T14:16:03;9.20;;;1.73;;
55879;SDS011;41802;51.564;-1.838;2024-02-14T14:18:32;8.60;;;1.17;;
55879;SDS011;41802;51.564;-1.838;2024-02-14T14:21:00;8.07;;;1.70;;
55879;SDS011;41802;51.564;-1.838;2024-02-14T14:23:29;7.50;;;1.38;;
55879;SDS011;41802;51.564;-1.838;2024-02-14T14:25:59;6.45;;;0.95;;
55879;SDS011;41802;51.564;-1.838;2024-02-14T14:28:35;8.00;;;1.40;;
55879;SDS011;41802;51.564;-1.838;2024-02-14T14:31:04;9.30;;;1.55;;
55879;SDS011;41802;51.564;-1.838;2024-02-14T14:33:32;8.13;;;1.50;;
55879;SDS011;41802;51.564;-1.838;2024-02-14T14:36:00;11.60;;;1.63;;
55879;SDS011;41802;51.564;-1.838;2024-02-14T14:38:29;10.18;;;1.35;;
55879;SDS011;41802;51.564;-1.838;2024-02-14T14:41:00;7.70;;;1.65;;
55879;SDS011;41802;51.564;-1.838;2024-02-14T14:43:27;10.60;;;1.70;;
55879;SDS011;41802;51.564;-1.838;2024-02-14T14:45:55;9.27;;;1.90;;
55879;SDS011;41802;51.564;-1.838;2024-02-14T14:48:25;6.35;;;2.30;;